sensor_id;sensor_type;location;lat;lon;timestamp;pressure;altitude;pressure_sealevel;temperature;humidity
68489;BME280;55481;48.764;8.936;2023-05-01T00:01:51;96960;;;8.3;70
68489;BME280;55481;48.764;8.936;2023-05-01T00:04:21;96960;;;8.3;69.5
68489;BME280;55481;48.764;8.936;2023-05-01T00:06:52;96960;;;8.3;69.5
68489;BME280;55481;48.764;8.936;2023-05-01T00:12:00;96960;;;8.3;69.5
68489;BME280;55481;48.764;8.936;2023-05-01T00:14:31;96950;;;8.4;69.5
68489;BME280;55481;48.764;8.936;2023-05-01T00:17:02;96950;;;8.4;69.5
68489;BME280;55481;48.764;8.936;2023-05-01T00:19:25;96950;;;8.3;69.5
68489;BME280;55481;48.764;8.936;2023-05-01T00:26:58;96940;;;8.5;69.5
68489;BME280;55481;48.764;8.936;2023-05-01T00:29:28;96940;;;8.5;69
68489;BME280;55481;48.764;8.936;2023-05-01T00:31:59;96930;;;8.6;69
68489;BME280;55481;48.764;8.936;2023-05-01T00:37:07;96920;;;8.6;69.5
68489;BME280;55481;48.764;8.936;2023-05-01T00:39:37;96920;;;8.6;69.5
68489;BME280;55481;48.764;8.936;2023-05-01T00:42:09;96920;;;8.5;69.5
68489;BME280;55481;48.764;8.936;2023-05-01T00:44:40;96920;;;8.4;70
68489;BME280;55481;48.764;8.936;2023-05-01T00:47:04;96920;;;8.4;70
68489;BME280;55481;48.764;8.936;2023-05-01T00:54:36;96910;;;8.5;69.5
68489;BME280;55481;48.764;8.936;2023-05-01T00:57:07;96900;;;8.6;69.5
68489;BME280;55481;48.764;8.936;2023-05-01T00:59:38;96900;;;8.7;69
68489;BME280;55481;48.764;8.936;2023-05-01T01:02:09;96900;;;8.6;69
68489;BME280;55481;48.764;8.936;2023-05-01T01:04:46;96900;;;8.5;69.5
68489;BME280;55481;48.764;8.936;2023-05-01T01:07:50;96890;;;8.5;70
68489;BME280;55481;48.764;8.936;2023-05-01T01:10:52;96880;;;8.7;69.5
68489;BME280;55481;48.764;8.936;2023-05-01T01:12:19;96880;;;8.7;69
68489;BME280;55481;48.764;8.936;2023-05-01T01:14:46;96880;;;8.7;69
68489;BME280;55481;48.764;8.936;2023-05-01T01:17:31;96870;;;8.7;69.5
68489;BME280;55481;48.764;8.936;2023-05-01T01:20:48;96870;;;8.7;69.5
68489;BME280;55481;48.764;8.936;2023-05-01T01:22:16;96860;;;8.6;69.5
68489;BME280;55481;48.764;8.936;2023-05-01T01:30:06;96860;;;8.8;69.5
68489;BME280;55481;48.764;8.936;2023-05-01T01:35:00;96870;;;8.7;69.5
68489;BME280;55481;48.764;8.936;2023-05-01T01:40:00;96860;;;8.6;70
68489;BME280;55481;48.764;8.936;2023-05-01T01:42:29;96870;;;8.7;69.5
68489;BME280;55481;48.764;8.936;2023-05-01T01:44:59;96860;;;8.8;69.5
68489;BME280;55481;48.764;8.936;2023-05-01T01:49:53;96870;;;8.7;69.5
68489;BME280;55481;48.764;8.936;2023-05-01T01:59:56;96860;;;8.5;70
68489;BME280;55481;48.764;8.936;2023-05-01T02:02:27;96860;;;8.7;69.5
68489;BME280;55481;48.764;8.936;2023-05-01T02:04:57;96850;;;8.7;69.5
68489;BME280;55481;48.764;8.936;2023-05-01T02:07:29;96850;;;8.8;69
68489;BME280;55481;48.764;8.936;2023-05-01T02:10:12;96850;;;8.9;69
68489;BME280;55481;48.764;8.936;2023-05-01T02:12:44;96850;;;8.7;69.5
68489;BME280;55481;48.764;8.936;2023-05-01T02:15:14;96850;;;8.6;70
68489;BME280;55481;48.764;8.936;2023-05-01T02:17:37;96840;;;8.6;70
68489;BME280;55481;48.764;8.936;2023-05-01T02:20:14;96840;;;8.5;70
68489;BME280;55481;48.764;8.936;2023-05-01T02:30:17;96840;;;8.4;70
68489;BME280;55481;48.764;8.936;2023-05-01T02:32:47;96830;;;8.6;70
68489;BME280;55481;48.764;8.936;2023-05-01T02:37:43;96830;;;8.6;69.5
68489;BME280;55481;48.764;8.936;2023-05-01T02:40:13;96830;;;8.4;70
68489;BME280;55481;48.764;8.936;2023-05-01T02:42:44;96830;;;8.5;70
68489;BME280;55481;48.764;8.936;2023-05-01T02:45:22;96830;;;8.5;70
68489;BME280;55481;48.764;8.936;2023-05-01T02:55:24;96820;;;8.4;70.5
68489;BME280;55481;48.764;8.936;2023-05-01T02:57:58;96820;;;8.4;70
68489;BME280;55481;48.764;8.936;2023-05-01T03:00:25;96820;;;8.5;70
68489;BME280;55481;48.764;8.936;2023-05-01T03:02:55;96810;;;8.6;70
68489;BME280;55481;48.764;8.936;2023-05-01T03:05:25;96810;;;8.6;70
68489;BME280;55481;48.764;8.936;2023-05-01T03:12:56;96810;;;8.6;70
68489;BME280;55481;48.764;8.936;2023-05-01T03:15:21;96810;;;8.7;70
68489;BME280;55481;48.764;8.936;2023-05-01T03:17:52;96800;;;8.6;70
68489;BME280;55481;48.764;8.936;2023-05-01T03:20:32;96800;;;8.6;70
68489;BME280;55481;48.764;8.936;2023-05-01T03:25:30;96800;;;8.6;70
68489;BME280;55481;48.764;8.936;2023-05-01T03:28:00;96800;;;8.6;70
68489;BME280;55481;48.764;8.936;2023-05-01T03:30:32;96790;;;8.6;70
68489;BME280;55481;48.764;8.936;2023-05-01T03:33:00;96800;;;8.6;70
68489;BME280;55481;48.764;8.936;2023-05-01T03:38:00;96790;;;8.6;70
68489;BME280;55481;48.764;8.936;2023-05-01T03:45:26;96780;;;8.5;70.5
68489;BME280;55481;48.764;8.936;2023-05-01T03:47:57;96780;;;8.5;70.5
68489;BME280;55481;48.764;8.936;2023-05-01T03:50:35;96780;;;8.6;70
68489;BME280;55481;48.764;8.936;2023-05-01T03:53:06;96780;;;8.7;70
68489;BME280;55481;48.764;8.936;2023-05-01T03:58:01;96780;;;8.6;70
68489;BME280;55481;48.764;8.936;2023-05-01T04:00:32;96780;;;8.6;70.5
68489;BME280;55481;48.764;8.936;2023-05-01T04:03:04;96780;;;8.7;70
68489;BME280;55481;48.764;8.936;2023-05-01T04:05:34;96770;;;8.8;69.5
68489;BME280;55481;48.764;8.936;2023-05-01T04:08:05;96780;;;8.7;70
68489;BME280;55481;48.764;8.936;2023-05-01T04:10:37;96780;;;8.7;70.5
68489;BME280;55481;48.764;8.936;2023-05-01T04:13:08;96780;;;8.7;70
68489;BME280;55481;48.764;8.936;2023-05-01T04:15:38;96780;;;8.6;70.5
68489;BME280;55481;48.764;8.936;2023-05-01T04:18:09;96780;;;8.7;70
68489;BME280;55481;48.764;8.936;2023-05-01T04:20:47;96770;;;8.8;70
68489;BME280;55481;48.764;8.936;2023-05-01T04:23:18;96770;;;8.7;70
68489;BME280;55481;48.764;8.936;2023-05-01T04:28:16;96770;;;8.9;69.5
68489;BME280;55481;48.764;8.936;2023-05-01T04:30:44;96770;;;8.9;70
68489;BME280;55481;48.764;8.936;2023-05-01T04:33:15;96780;;;8.8;70
68489;BME280;55481;48.764;8.936;2023-05-01T04:35:46;96780;;;8.8;70
68489;BME280;55481;48.764;8.936;2023-05-01T04:38:17;96770;;;8.8;70
68489;BME280;55481;48.764;8.936;2023-05-01T04:40:48;96780;;;8.9;70
68489;BME280;55481;48.764;8.936;2023-05-01T04:43:19;96780;;;8.9;70
68489;BME280;55481;48.764;8.936;2023-05-01T04:45:50;96780;;;9;70
68489;BME280;55481;48.764;8.936;2023-05-01T04:48:22;96780;;;9.1;69.5
68489;BME280;55481;48.764;8.936;2023-05-01T04:50:52;96780;;;9.2;69.5
68489;BME280;55481;48.764;8.936;2023-05-01T04:53:29;96780;;;9.2;69.5
68489;BME280;55481;48.764;8.936;2023-05-01T04:58:25;96780;;;9;70
68489;BME280;55481;48.764;8.936;2023-05-01T05:00:56;96780;;;8.9;70.5
68489;BME280;55481;48.764;8.936;2023-05-01T05:03:27;96780;;;8.9;70.5
68489;BME280;55481;48.764;8.936;2023-05-01T05:05:58;96780;;;8.9;70.5
68489;BME280;55481;48.764;8.936;2023-05-01T05:08:29;96780;;;9.1;70
68489;BME280;55481;48.764;8.936;2023-05-01T05:11:00;96780;;;9.1;70
68489;BME280;55481;48.764;8.936;2023-05-01T05:13:31;96780;;;9.2;69.5
68489;BME280;55481;48.764;8.936;2023-05-01T05:16:02;96780;;;9;70.5
68489;BME280;55481;48.764;8.936;2023-05-01T05:18:33;96780;;;8.8;70.5
68489;BME280;55481;48.764;8.936;2023-05-01T05:21:10;96790;;;8.8;71
68489;BME280;55481;48.764;8.936;2023-05-01T05:26:18;96790;;;8.9;70.5
68489;BME280;55481;48.764;8.936;2023-05-01T05:28:55;96790;;;8.9;70.5
68489;BME280;55481;48.764;8.936;2023-05-01T05:33:36;96790;;;8.9;70.5
68489;BME280;55481;48.764;8.936;2023-05-01T05:36:07;96780;;;9.1;70
68489;BME280;55481;48.764;8.936;2023-05-01T05:38:38;96780;;;9.3;69.5
68489;BME280;55481;48.764;8.936;2023-05-01T05:41:01;96780;;;9.4;69.5
68489;BME280;55481;48.764;8.936;2023-05-01T05:43:33;96780;;;9.6;69
68489;BME280;55481;48.764;8.936;2023-05-01T05:51:05;96780;;;9.5;70
68489;BME280;55481;48.764;8.936;2023-05-01T05:53:36;96790;;;9.6;69.5
68489;BME280;55481;48.764;8.936;2023-05-01T05:56:06;96780;;;9.6;69.5
68489;BME280;55481;48.764;8.936;2023-05-01T05:58:37;96780;;;9.5;70
68489;BME280;55481;48.764;8.936;2023-05-01T06:07:32;96780;;;10.2;70
68489;BME280;55481;48.764;8.936;2023-05-01T06:16:56;96780;;;10.1;70
68489;BME280;55481;48.764;8.936;2023-05-01T06:19:27;96780;;;10.4;69
68489;BME280;55481;48.764;8.936;2023-05-01T06:21:57;96770;;;10.3;69.5
68489;BME280;55481;48.764;8.936;2023-05-01T06:26:59;96780;;;10.2;69.5
68489;BME280;55481;48.764;8.936;2023-05-01T06:29:36;96780;;;10.2;69.5
68489;BME280;55481;48.764;8.936;2023-05-01T06:32:07;96780;;;10.2;69.5
68489;BME280;55481;48.764;8.936;2023-05-01T06:34:38;96780;;;10.3;69.5
68489;BME280;55481;48.764;8.936;2023-05-01T06:37:09;96780;;;10.4;69.5
68489;BME280;55481;48.764;8.936;2023-05-01T06:39:42;96780;;;10.4;69
68489;BME280;55481;48.764;8.936;2023-05-01T06:42:17;96780;;;10.5;69
68489;BME280;55481;48.764;8.936;2023-05-01T06:44:47;96790;;;10.3;69.5
68489;BME280;55481;48.764;8.936;2023-05-01T06:47:24;96780;;;10.1;70
68489;BME280;55481;48.764;8.936;2023-05-01T06:52:11;96790;;;10.4;69.5
68489;BME280;55481;48.764;8.936;2023-05-01T06:54:42;96790;;;10.6;69
68489;BME280;55481;48.764;8.936;2023-05-01T06:57:13;96800;;;11;68.5
68489;BME280;55481;48.764;8.936;2023-05-01T07:02:07;96800;;;11.4;67.5
68489;BME280;55481;48.764;8.936;2023-05-01T07:04:38;96800;;;11.6;67.5
68489;BME280;55481;48.764;8.936;2023-05-01T07:12:11;96800;;;11.5;68
68489;BME280;55481;48.764;8.936;2023-05-01T07:14:42;96800;;;11.6;68
68489;BME280;55481;48.764;8.936;2023-05-01T07:17:12;96800;;;11.5;68.5
68489;BME280;55481;48.764;8.936;2023-05-01T07:22:20;96790;;;11.5;68.5
68489;BME280;55481;48.764;8.936;2023-05-01T07:24:51;96790;;;11.6;68.5
68489;BME280;55481;48.764;8.936;2023-05-01T07:27:23;96790;;;11.5;69
68489;BME280;55481;48.764;8.936;2023-05-01T07:32:17;96780;;;12.1;67.5
68489;BME280;55481;48.764;8.936;2023-05-01T07:39:49;96780;;;12.3;67.5
68489;BME280;55481;48.764;8.936;2023-05-01T07:42:20;96780;;;12.3;68
68489;BME280;55481;48.764;8.936;2023-05-01T07:44:51;96780;;;12.2;68
68489;BME280;55481;48.764;8.936;2023-05-01T07:47:22;96770;;;12.1;68.5
68489;BME280;55481;48.764;8.936;2023-05-01T07:49:59;96770;;;12.2;68.5
68489;BME280;55481;48.764;8.936;2023-05-01T07:55:01;96770;;;12.7;67.5
68489;BME280;55481;48.764;8.936;2023-05-01T07:57:32;96770;;;13;67
68489;BME280;55481;48.764;8.936;2023-05-01T08:00:10;96760;;;12.9;67
68489;BME280;55481;48.764;8.936;2023-05-01T08:02:37;96760;;;12.9;67.5
68489;BME280;55481;48.764;8.936;2023-05-01T08:05:12;96770;;;12.9;67.5
68489;BME280;55481;48.764;8.936;2023-05-01T08:07:50;96770;;;12.8;68
68489;BME280;55481;48.764;8.936;2023-05-01T08:10:25;96760;;;13.1;67.5
68489;BME280;55481;48.764;8.936;2023-05-01T08:12:42;96770;;;13.3;67
68489;BME280;55481;48.764;8.936;2023-05-01T08:15:14;96760;;;13.3;67
68489;BME280;55481;48.764;8.936;2023-05-01T08:17:42;96770;;;13.6;66.5
68489;BME280;55481;48.764;8.936;2023-05-01T08:20:07;96760;;;13.9;66
68489;BME280;55481;48.764;8.936;2023-05-01T08:22:37;96760;;;13.9;66.5
68489;BME280;55481;48.764;8.936;2023-05-01T08:25:14;96760;;;13.6;67
68489;BME280;55481;48.764;8.936;2023-05-01T08:27:42;96760;;;13.8;67
68489;BME280;55481;48.764;8.936;2023-05-01T08:35:25;96750;;;14.4;66
68489;BME280;55481;48.764;8.936;2023-05-01T08:37:48;96750;;;14.4;66
68489;BME280;55481;48.764;8.936;2023-05-01T08:40:20;96750;;;14.1;67
68489;BME280;55481;48.764;8.936;2023-05-01T08:42:48;96750;;;14.6;66
68489;BME280;55481;48.764;8.936;2023-05-01T08:45:19;96750;;;14.7;65.5
68489;BME280;55481;48.764;8.936;2023-05-01T08:47:50;96750;;;14.6;66
68489;BME280;55481;48.764;8.936;2023-05-01T08:50:19;96750;;;14.4;67
68489;BME280;55481;48.764;8.936;2023-05-01T08:52:49;96750;;;14.8;66
68489;BME280;55481;48.764;8.936;2023-05-01T08:55:19;96750;;;14.7;66
68489;BME280;55481;48.764;8.936;2023-05-01T08:57:50;96750;;;14.6;66.5
68489;BME280;55481;48.764;8.936;2023-05-01T09:00:17;96750;;;15;66
68489;BME280;55481;48.764;8.936;2023-05-01T09:02:46;96750;;;15.1;65.5
68489;BME280;55481;48.764;8.936;2023-05-01T09:07:53;96750;;;14.9;66.5
68489;BME280;55481;48.764;8.936;2023-05-01T09:10:23;96760;;;15;66
68489;BME280;55481;48.764;8.936;2023-05-01T09:12:55;96750;;;15;66.5
68489;BME280;55481;48.764;8.936;2023-05-01T09:15:18;96750;;;15.4;65.5
68489;BME280;55481;48.764;8.936;2023-05-01T09:17:48;96740;;;16.1;64
68489;BME280;55481;48.764;8.936;2023-05-01T09:20:20;96740;;;16.4;63
68489;BME280;55481;48.764;8.936;2023-05-01T09:22:57;96740;;;16.2;63.5
68489;BME280;55481;48.764;8.936;2023-05-01T09:27:53;96740;;;16.2;64
68489;BME280;55481;48.764;8.936;2023-05-01T09:33:11;96740;;;16.3;64
68489;BME280;55481;48.764;8.936;2023-05-01T09:35:25;96740;;;16.1;65
68489;BME280;55481;48.764;8.936;2023-05-01T09:40:33;96740;;;16.2;64.5
68489;BME280;55481;48.764;8.936;2023-05-01T09:43:04;96740;;;16.1;64.5
68489;BME280;55481;48.764;8.936;2023-05-01T09:45:34;96740;;;16.2;65
68489;BME280;55481;48.764;8.936;2023-05-01T09:50:34;96740;;;16.6;64
68489;BME280;55481;48.764;8.936;2023-05-01T09:53:05;96740;;;16.1;65.5
68489;BME280;55481;48.764;8.936;2023-05-01T09:55:30;96740;;;16.1;65.5
68489;BME280;55481;48.764;8.936;2023-05-01T10:00:25;96730;;;17.4;63
68489;BME280;55481;48.764;8.936;2023-05-01T10:02:55;96740;;;17.1;63.5
68489;BME280;55481;48.764;8.936;2023-05-01T10:05:29;96740;;;16.8;64.5
68489;BME280;55481;48.764;8.936;2023-05-01T10:07:58;96740;;;16.9;64
68489;BME280;55481;48.764;8.936;2023-05-01T10:10:28;96740;;;17.4;63
68489;BME280;55481;48.764;8.936;2023-05-01T10:13:11;96730;;;17.4;63
68489;BME280;55481;48.764;8.936;2023-05-01T10:20:31;96730;;;17.7;63
68489;BME280;55481;48.764;8.936;2023-05-01T10:28:09;96730;;;16.6;65
68489;BME280;55481;48.764;8.936;2023-05-01T10:30:41;96740;;;16.2;66
68489;BME280;55481;48.764;8.936;2023-05-01T10:33:12;96740;;;16.3;65.5
68489;BME280;55481;48.764;8.936;2023-05-01T10:38:21;96740;;;16.2;65
68489;BME280;55481;48.764;8.936;2023-05-01T10:40:51;96740;;;16.2;65
68489;BME280;55481;48.764;8.936;2023-05-01T10:43:21;96740;;;16.1;65
68489;BME280;55481;48.764;8.936;2023-05-01T10:51:17;96740;;;16.2;64.5
68489;BME280;55481;48.764;8.936;2023-05-01T10:53:17;96740;;;16.2;64.5
68489;BME280;55481;48.764;8.936;2023-05-01T10:55:48;96750;;;16.3;64
68489;BME280;55481;48.764;8.936;2023-05-01T11:01:10;96750;;;15.9;65
68489;BME280;55481;48.764;8.936;2023-05-01T11:06:06;96740;;;15.9;65
68489;BME280;55481;48.764;8.936;2023-05-01T11:08:29;96740;;;15.8;65.5
68489;BME280;55481;48.764;8.936;2023-05-01T11:11:44;96740;;;15.8;65
68489;BME280;55481;48.764;8.936;2023-05-01T11:14:27;96740;;;15.8;65
68489;BME280;55481;48.764;8.936;2023-05-01T11:15:58;96740;;;15.9;65
68489;BME280;55481;48.764;8.936;2023-05-01T11:18:43;96740;;;15.9;65
68489;BME280;55481;48.764;8.936;2023-05-01T11:20:57;96730;;;15.9;64.5
68489;BME280;55481;48.764;8.936;2023-05-01T11:23:28;96730;;;16.1;64.5
68489;BME280;55481;48.764;8.936;2023-05-01T11:28:30;96730;;;16.5;63.5
68489;BME280;55481;48.764;8.936;2023-05-01T11:31:01;96730;;;16.7;63
68489;BME280;55481;48.764;8.936;2023-05-01T11:33:36;96740;;;17;62.5
68489;BME280;55481;48.764;8.936;2023-05-01T11:36:03;96730;;;17.3;62
68489;BME280;55481;48.764;8.936;2023-05-01T11:38:34;96730;;;17.6;61.5
68489;BME280;55481;48.764;8.936;2023-05-01T11:41:05;96720;;;18.3;60.5
68489;BME280;55481;48.764;8.936;2023-05-01T11:43:47;96720;;;18.8;59
68489;BME280;55481;48.764;8.936;2023-05-01T11:46:13;96710;;;19.7;57.5
68489;BME280;55481;48.764;8.936;2023-05-01T11:48:48;96710;;;20.3;56.5
68489;BME280;55481;48.764;8.936;2023-05-01T11:53:40;96700;;;21.4;55
68489;BME280;55481;48.764;8.936;2023-05-01T11:56:26;96710;;;21.1;56.5
68489;BME280;55481;48.764;8.936;2023-05-01T11:58:42;96710;;;21.7;55.5
68489;BME280;55481;48.764;8.936;2023-05-01T12:01:13;96700;;;22.6;54
68489;BME280;55481;48.764;8.936;2023-05-01T12:03:44;96710;;;20.7;58.5
68489;BME280;55481;48.764;8.936;2023-05-01T12:06:15;96710;;;18.9;63
68489;BME280;55481;48.764;8.936;2023-05-01T12:08:47;96720;;;18.3;64.5
68489;BME280;55481;48.764;8.936;2023-05-01T12:11:16;96720;;;17.1;66.5
68489;BME280;55481;48.764;8.936;2023-05-01T12:13:47;96720;;;16.9;67
68489;BME280;55481;48.764;8.936;2023-05-01T12:16:25;96710;;;17.2;66
68489;BME280;55481;48.764;8.936;2023-05-01T12:21:28;96720;;;17.2;65
68489;BME280;55481;48.764;8.936;2023-05-01T12:24:11;96720;;;16.7;65.5
68489;BME280;55481;48.764;8.936;2023-05-01T12:26:27;96720;;;15.9;67
68489;BME280;55481;48.764;8.936;2023-05-01T12:31:21;96730;;;15.5;66.5
68489;BME280;55481;48.764;8.936;2023-05-01T12:33:53;96740;;;15.3;66.5
68489;BME280;55481;48.764;8.936;2023-05-01T12:36:23;96730;;;15.4;66.5
68489;BME280;55481;48.764;8.936;2023-05-01T12:38:56;96740;;;15.4;65.5
68489;BME280;55481;48.764;8.936;2023-05-01T12:44:24;96740;;;15.4;65.5
68489;BME280;55481;48.764;8.936;2023-05-01T12:49:03;96740;;;15.8;64.5
68489;BME280;55481;48.764;8.936;2023-05-01T12:51:32;96730;;;15.8;64.5
68489;BME280;55481;48.764;8.936;2023-05-01T12:54:03;96730;;;16.7;62.5
68489;BME280;55481;48.764;8.936;2023-05-01T12:56:33;96740;;;16.5;62.5
68489;BME280;55481;48.764;8.936;2023-05-01T12:59:03;96740;;;15.5;65
68489;BME280;55481;48.764;8.936;2023-05-01T13:01:33;96750;;;15.4;65
68489;BME280;55481;48.764;8.936;2023-05-01T13:04:04;96750;;;15.1;65.5
68489;BME280;55481;48.764;8.936;2023-05-01T13:11:28;96750;;;14;67
68489;BME280;55481;48.764;8.936;2023-05-01T13:14:07;96750;;;13.6;67.5
68489;BME280;55481;48.764;8.936;2023-05-01T13:16:30;96750;;;13.6;67.5
68489;BME280;55481;48.764;8.936;2023-05-01T13:21:33;96740;;;14.2;65.5
68489;BME280;55481;48.764;8.936;2023-05-01T13:24:03;96740;;;14.5;64.5
68489;BME280;55481;48.764;8.936;2023-05-01T13:26:34;96730;;;15;64
68489;BME280;55481;48.764;8.936;2023-05-01T13:29:05;96730;;;15;64
68489;BME280;55481;48.764;8.936;2023-05-01T13:31:42;96740;;;14.7;65
68489;BME280;55481;48.764;8.936;2023-05-01T13:36:38;96740;;;14.4;65.5
68489;BME280;55481;48.764;8.936;2023-05-01T13:39:09;96740;;;14.9;65
68489;BME280;55481;48.764;8.936;2023-05-01T13:41:46;96730;;;15.8;63
68489;BME280;55481;48.764;8.936;2023-05-01T13:49:31;96710;;;17.8;59.5
68489;BME280;55481;48.764;8.936;2023-05-01T13:51:49;96710;;;18.3;59.5
68489;BME280;55481;48.764;8.936;2023-05-01T13:54:19;96690;;;20.5;55.5
68489;BME280;55481;48.764;8.936;2023-05-01T13:56:43;96690;;;22.7;52
68489;BME280;55481;48.764;8.936;2023-05-01T13:59:14;96700;;;22.6;52.5
68489;BME280;55481;48.764;8.936;2023-05-01T14:01:45;96690;;;23.1;52.5
68489;BME280;55481;48.764;8.936;2023-05-01T14:04:16;96680;;;23.9;52
68489;BME280;55481;48.764;8.936;2023-05-01T14:12:01;96690;;;19.4;62.5
68489;BME280;55481;48.764;8.936;2023-05-01T14:14:38;96690;;;18.3;64.5
68489;BME280;55481;48.764;8.936;2023-05-01T14:16:55;96690;;;17.7;65.5
68489;BME280;55481;48.764;8.936;2023-05-01T14:21:48;96700;;;16.5;67.5
68489;BME280;55481;48.764;8.936;2023-05-01T14:24:19;96710;;;16.1;67.5
68489;BME280;55481;48.764;8.936;2023-05-01T14:26:57;96710;;;15.9;67.5
68489;BME280;55481;48.764;8.936;2023-05-01T14:29:18;96720;;;15.7;67.5
68489;BME280;55481;48.764;8.936;2023-05-01T14:31:46;96720;;;15.6;67.5
68489;BME280;55481;48.764;8.936;2023-05-01T14:41:49;96740;;;15.2;66.5
68489;BME280;55481;48.764;8.936;2023-05-01T14:44:19;96750;;;15.1;66
68489;BME280;55481;48.764;8.936;2023-05-01T14:47:07;96760;;;15;66.5
68489;BME280;55481;48.764;8.936;2023-05-01T14:49:22;96760;;;14.8;67
68489;BME280;55481;48.764;8.936;2023-05-01T14:51:58;96760;;;14.9;66.5
68489;BME280;55481;48.764;8.936;2023-05-01T14:54:30;96760;;;14.6;67
68489;BME280;55481;48.764;8.936;2023-05-01T14:59:25;96760;;;14.5;67
68489;BME280;55481;48.764;8.936;2023-05-01T15:04:26;96760;;;14.2;67
68489;BME280;55481;48.764;8.936;2023-05-01T15:14:29;96750;;;13.9;67
68489;BME280;55481;48.764;8.936;2023-05-01T15:17:05;96750;;;13.8;67.5
68489;BME280;55481;48.764;8.936;2023-05-01T15:19:31;96750;;;14.3;66.5
68489;BME280;55481;48.764;8.936;2023-05-01T15:22:01;96750;;;14.4;66
68489;BME280;55481;48.764;8.936;2023-05-01T15:24:45;96750;;;14.5;65.5
68489;BME280;55481;48.764;8.936;2023-05-01T15:27:15;96750;;;14.5;65.5
68489;BME280;55481;48.764;8.936;2023-05-01T15:29:39;96750;;;14.4;65.5
68489;BME280;55481;48.764;8.936;2023-05-01T15:32:10;96760;;;14.1;66.5
68489;BME280;55481;48.764;8.936;2023-05-01T15:34:41;96760;;;13.8;67
68489;BME280;55481;48.764;8.936;2023-05-01T15:37:13;96770;;;13.7;67
68489;BME280;55481;48.764;8.936;2023-05-01T15:39:50;96770;;;13.8;66.5
68489;BME280;55481;48.764;8.936;2023-05-01T15:44:46;96780;;;13.7;67
68489;BME280;55481;48.764;8.936;2023-05-01T15:47:16;96780;;;13.5;67
68489;BME280;55481;48.764;8.936;2023-05-01T15:49:47;96790;;;13.4;67
68489;BME280;55481;48.764;8.936;2023-05-01T15:52:18;96790;;;13.3;67
68489;BME280;55481;48.764;8.936;2023-05-01T15:54:49;96780;;;13.1;67.5
68489;BME280;55481;48.764;8.936;2023-05-01T15:57:20;96790;;;13.1;67.5
68489;BME280;55481;48.764;8.936;2023-05-01T15:59:58;96800;;;12.9;67.5
68489;BME280;55481;48.764;8.936;2023-05-01T16:04:53;96820;;;12.7;67.5
68489;BME280;55481;48.764;8.936;2023-05-01T16:07:24;96830;;;12.5;67.5
68489;BME280;55481;48.764;8.936;2023-05-01T16:09:55;96830;;;12.3;68
68489;BME280;55481;48.764;8.936;2023-05-01T16:15:10;96830;;;12.2;68
68489;BME280;55481;48.764;8.936;2023-05-01T16:17:35;96840;;;12;68.5
68489;BME280;55481;48.764;8.936;2023-05-01T16:20:03;96840;;;11.7;69
68489;BME280;55481;48.764;8.936;2023-05-01T16:22:33;96830;;;11.4;70
68489;BME280;55481;48.764;8.936;2023-05-01T16:25:04;96810;;;11.3;70.5
68489;BME280;55481;48.764;8.936;2023-05-01T16:27:34;96810;;;11.2;70.5
68489;BME280;55481;48.764;8.936;2023-05-01T16:30:17;96800;;;11.4;70
68489;BME280;55481;48.764;8.936;2023-05-01T16:32:47;96820;;;11.5;69.5
68489;BME280;55481;48.764;8.936;2023-05-01T16:35:04;96820;;;11.6;69.5
68489;BME280;55481;48.764;8.936;2023-05-01T16:37:28;96820;;;11.7;69
68489;BME280;55481;48.764;8.936;2023-05-01T16:40:00;96820;;;11.7;69
68489;BME280;55481;48.764;8.936;2023-05-01T16:42:30;96810;;;11.8;69
68489;BME280;55481;48.764;8.936;2023-05-01T16:45:08;96810;;;11.8;69.5
68489;BME280;55481;48.764;8.936;2023-05-01T16:47:32;96810;;;11.8;69
68489;BME280;55481;48.764;8.936;2023-05-01T16:50:05;96810;;;11.8;69.5
68489;BME280;55481;48.764;8.936;2023-05-01T16:52:34;96800;;;11.7;69.5
68489;BME280;55481;48.764;8.936;2023-05-01T16:55:12;96800;;;11.8;69.5
68489;BME280;55481;48.764;8.936;2023-05-01T16:57:43;96800;;;12;69
68489;BME280;55481;48.764;8.936;2023-05-01T17:00:08;96800;;;12.2;69
68489;BME280;55481;48.764;8.936;2023-05-01T17:02:38;96800;;;12.7;68
68489;BME280;55481;48.764;8.936;2023-05-01T17:07:41;96800;;;13.1;67
68489;BME280;55481;48.764;8.936;2023-05-01T17:10:11;96810;;;13.1;67.5
68489;BME280;55481;48.764;8.936;2023-05-01T17:12:42;96810;;;13.2;67.5
68489;BME280;55481;48.764;8.936;2023-05-01T17:15:13;96810;;;13.2;68
68489;BME280;55481;48.764;8.936;2023-05-01T17:17:44;96820;;;13;68.5
68489;BME280;55481;48.764;8.936;2023-05-01T17:20:15;96820;;;13;68.5
68489;BME280;55481;48.764;8.936;2023-05-01T17:22:46;96820;;;12.9;69
68489;BME280;55481;48.764;8.936;2023-05-01T17:27:48;96820;;;12.9;69
68489;BME280;55481;48.764;8.936;2023-05-01T17:30:19;96820;;;12.8;69
68489;BME280;55481;48.764;8.936;2023-05-01T17:35:27;96830;;;12.5;70
68489;BME280;55481;48.764;8.936;2023-05-01T17:37:57;96830;;;12.4;70.5
68489;BME280;55481;48.764;8.936;2023-05-01T17:40:27;96840;;;12.4;70.5
68489;BME280;55481;48.764;8.936;2023-05-01T17:42:57;96840;;;12.2;70.5
68489;BME280;55481;48.764;8.936;2023-05-01T17:45:22;96840;;;12;71
68489;BME280;55481;48.764;8.936;2023-05-01T17:47:59;96840;;;11.9;71
68489;BME280;55481;48.764;8.936;2023-05-01T17:52:55;96860;;;12.1;71
68489;BME280;55481;48.764;8.936;2023-05-01T17:58:05;96870;;;11.7;71.5
68489;BME280;55481;48.764;8.936;2023-05-01T18:00:33;96870;;;11.7;71.5
68489;BME280;55481;48.764;8.936;2023-05-01T18:03:03;96870;;;11.7;71.5
68489;BME280;55481;48.764;8.936;2023-05-01T18:05:27;96870;;;11.6;72
68489;BME280;55481;48.764;8.936;2023-05-01T18:07:59;96870;;;11.7;71.5
68489;BME280;55481;48.764;8.936;2023-05-01T18:10:30;96880;;;11.7;71.5
68489;BME280;55481;48.764;8.936;2023-05-01T18:13:07;96880;;;11.6;71.5
68489;BME280;55481;48.764;8.936;2023-05-01T18:15:45;96880;;;11.6;71.5
68489;BME280;55481;48.764;8.936;2023-05-01T18:18:15;96880;;;11.6;71.5
68489;BME280;55481;48.764;8.936;2023-05-01T18:23:02;96890;;;11.7;71.5
68489;BME280;55481;48.764;8.936;2023-05-01T18:25:33;96890;;;11.7;71.5
68489;BME280;55481;48.764;8.936;2023-05-01T18:32:59;96880;;;11.8;71.5
68489;BME280;55481;48.764;8.936;2023-05-01T18:35:30;96890;;;11.8;71.5
68489;BME280;55481;48.764;8.936;2023-05-01T18:38:01;96890;;;11.8;71.5
68489;BME280;55481;48.764;8.936;2023-05-01T18:40:31;96880;;;11.7;71.5
68489;BME280;55481;48.764;8.936;2023-05-01T18:43:02;96880;;;11.7;71.5
68489;BME280;55481;48.764;8.936;2023-05-01T18:45:33;96880;;;11.8;71.5